Time;durP1;ratioP1;P1;durP2;ratioP2;P2;SDS_P1;SDS_P2;PMS_P1;PMS_P2;Temp;Humidity;BMP_temperature;BMP_pressure;BME280_temperature;BME280_humidity;BME280_pressure;Samples;Min_cycle;Max_cycle;Signal;HPM_P1;HPM_P2
2022/05/24 00:00:15;;;;;;;14.02;9.93;;;12.90;99.90;;;;;;5057770;28;20054;-76
2022/05/24 00:02:41;;;;;;;10.77;8.98;;;12.80;99.90;;;;;;5058100;28;20040;-75
2022/05/24 00:05:08;;;;;;;10.93;7.25;;;12.80;99.90;;;;;;5075305;28;20098;-76
2022/05/24 00:07:35;;;;;;;13.48;7.43;;;12.70;99.90;;;;;;5075144;28;20095;-75
2022/05/24 00:10:02;;;;;;;13.90;7.57;;;12.60;99.90;;;;;;5057624;28;20526;-77
2022/05/24 00:12:28;;;;;;;9.32;5.90;;;12.60;99.90;;;;;;5057544;28;20048;-75
2022/05/24 00:17:39;;;;;;;9.27;5.63;;;12.50;99.90;;;;;;5074875;28;20049;-75
2022/05/24 00:20:05;;;;;;;10.13;6.65;;;12.40;99.90;;;;;;5074785;28;20036;-75
2022/05/24 00:22:31;;;;;;;11.57;6.40;;;12.40;99.90;;;;;;5074693;28;20111;-76
2022/05/24 00:25:01;;;;;;;10.40;6.97;;;12.30;99.90;;;;;;5074580;28;20118;-76
2022/05/24 00:27:29;;;;;;;9.93;6.13;;;12.30;99.90;;;;;;5074651;28;20369;-76
2022/05/24 00:29:56;;;;;;;10.60;6.55;;;12.30;99.90;;;;;;5074745;28;20084;-76
2022/05/24 00:32:22;;;;;;;9.52;5.82;;;12.30;99.90;;;;;;5040680;28;20421;-75
2022/05/24 00:34:48;;;;;;;11.85;6.75;;;12.30;99.90;;;;;;5057241;28;20504;-75
2022/05/24 00:37:19;;;;;;;11.88;7.70;;;12.30;99.90;;;;;;5074878;28;20135;-77
2022/05/24 00:39:46;;;;;;;15.95;10.43;;;12.30;99.90;;;;;;5056668;28;20074;-76
2022/05/24 00:42:16;;;;;;;21.58;12.77;;;12.40;99.90;;;;;;5057005;28;20048;-76
2022/05/24 00:44:51;;;;;;;16.55;11.27;;;12.40;99.90;;;;;;5037351;28;20400;-76
2022/05/24 00:47:33;;;;;;;18.77;10.43;;;12.40;99.90;;;;;;5054317;28;20044;-76
2022/05/24 00:50:11;;;;;;;15.77;10.40;;;12.40;99.90;;;;;;5036962;28;20044;-78
2022/05/24 00:52:54;;;;;;;13.60;10.77;;;12.40;99.90;;;;;;5054527;28;20072;-76
2022/05/24 00:55:22;;;;;;;16.63;11.80;;;12.50;99.90;;;;;;5054280;28;20103;-77
2022/05/24 00:58:35;;;;;;;16.77;12.20;;;12.50;99.90;;;;;;5054125;28;20048;-77
2022/05/24 01:01:05;;;;;;;18.50;12.60;;;12.50;99.90;;;;;;5012331;28;20442;-76
2022/05/24 01:03:30;;;;;;;16.63;11.82;;;12.60;99.90;;;;;;5049506;28;20059;-75
2022/05/24 01:05:56;;;;;;;17.95;11.82;;;12.60;99.90;;;;;;5054204;28;20040;-76
2022/05/24 01:08:22;;;;;;;17.33;12.10;;;12.60;99.90;;;;;;5054009;28;20045;-75
2022/05/24 01:10:51;;;;;;;18.20;12.90;;;12.70;99.90;;;;;;5036111;28;20091;-76
2022/05/24 01:13:22;;;;;;;14.50;11.25;;;12.70;99.90;;;;;;5036916;28;20068;-76
2022/05/24 01:15:51;;;;;;;18.83;12.82;;;12.70;99.90;;;;;;5036381;28;20056;-77
2022/05/24 01:18:21;;;;;;;20.13;13.50;;;12.70;99.90;;;;;;5053771;28;20044;-75
2022/05/24 01:21:09;;;;;;;21.02;13.93;;;12.70;99.90;;;;;;5053551;28;20052;-78
2022/05/24 01:23:52;;;;;;;16.17;11.35;;;12.80;99.90;;;;;;5035845;28;20155;-75
2022/05/24 01:26:38;;;;;;;19.70;13.07;;;12.80;99.90;;;;;;5035696;28;20482;-76
2022/05/24 01:29:08;;;;;;;16.52;12.27;;;12.80;99.90;;;;;;5053668;28;20060;-76
2022/05/24 01:37:06;;;;;;;19.45;13.45;;;12.90;99.90;;;;;;5053253;28;20112;-77
2022/05/24 01:39:32;;;;;;;20.00;13.93;;;12.90;99.90;;;;;;5035988;28;20055;-78
2022/05/24 01:41:58;;;;;;;20.13;14.38;;;12.90;99.90;;;;;;5035835;28;20450;-76
2022/05/24 01:44:48;;;;;;;26.27;16.02;;;13.00;99.90;;;;;;5053642;28;20044;-76
2022/05/24 01:47:15;;;;;;;20.70;14.95;;;13.00;99.90;;;;;;5055878;28;20048;-75
2022/05/24 01:49:46;;;;;;;18.65;13.82;;;13.00;99.90;;;;;;5055920;28;20040;-78
2022/05/24 01:52:17;;;;;;;26.67;14.88;;;13.10;99.90;;;;;;5054574;28;20362;-74
2022/05/24 01:54:51;;;;;;;18.98;14.57;;;13.10;99.90;;;;;;5055949;28;20043;-75
2022/05/24 01:57:21;;;;;;;25.13;15.10;;;13.10;99.90;;;;;;5072831;28;20529;-76
2022/05/24 01:59:49;;;;;;;23.08;15.90;;;13.10;99.90;;;;;;5073085;28;20071;-75
2022/05/24 02:02:16;;;;;;;23.65;18.17;;;13.20;99.90;;;;;;5072848;28;20496;-76
2022/05/24 02:04:42;;;;;;;24.73;18.25;;;13.20;99.90;;;;;;5055444;28;20045;-78
2022/05/24 02:07:17;;;;;;;23.83;16.45;;;13.10;99.90;;;;;;5055185;28;20056;-76
2022/05/24 02:09:46;;;;;;;28.58;18.65;;;13.20;99.90;;;;;;5072832;28;20055;-76
2022/05/24 02:12:21;;;;;;;26.50;18.98;;;13.20;99.90;;;;;;5072437;28;20473;-75
2022/05/24 02:14:58;;;;;;;26.77;18.70;;;13.30;99.90;;;;;;5055412;28;20123;-77
2022/05/24 02:17:29;;;;;;;30.98;18.67;;;13.30;99.90;;;;;;5072251;28;20132;-76
2022/05/24 02:19:58;;;;;;;31.10;20.48;;;13.30;99.90;;;;;;5072593;28;20056;-77
2022/05/24 02:22:27;;;;;;;29.27;20.42;;;13.30;99.90;;;;;;5072502;28;20396;-77
2022/05/24 02:25:09;;;;;;;32.30;21.25;;;13.30;99.90;;;;;;5072579;28;20040;-77
2022/05/24 02:27:43;;;;;;;34.13;21.80;;;13.40;99.90;;;;;;5054720;28;20462;-77
2022/05/24 02:30:20;;;;;;;32.78;21.65;;;13.40;99.90;;;;;;5054985;28;20048;-75
2022/05/24 02:32:47;;;;;;;36.83;22.20;;;13.40;99.90;;;;;;5055051;28;20127;-76
2022/05/24 02:35:13;;;;;;;33.97;23.13;;;13.40;99.90;;;;;;5072450;28;20110;-77
2022/05/24 02:37:39;;;;;;;32.22;22.13;;;13.40;99.90;;;;;;5054973;28;20048;-78
2022/05/24 02:42:50;;;;;;;36.13;24.15;;;13.40;99.90;;;;;;5054780;28;20059;-78
2022/05/24 02:45:17;;;;;;;36.67;24.85;;;13.40;99.90;;;;;;5054803;28;20115;-78
2022/05/24 02:47:42;;;;;;;42.38;25.02;;;13.40;99.90;;;;;;5054678;28;20036;-77
2022/05/24 02:50:11;;;;;;;39.30;27.25;;;13.50;99.90;;;;;;5054720;28;20048;-76
2022/05/24 02:52:38;;;;;;;44.65;28.92;;;13.50;99.90;;;;;;5072482;28;20338;-76
2022/05/24 02:55:05;;;;;;;44.65;27.95;;;13.40;99.90;;;;;;5071921;28;20082;-77
2022/05/24 02:57:31;;;;;;;43.65;27.20;;;13.50;99.90;;;;;;5054596;28;20083;-75
2022/05/24 02:59:57;;;;;;;48.92;31.05;;;13.50;99.90;;;;;;5054504;28;20048;-76
2022/05/24 03:02:25;;;;;;;51.88;31.52;;;13.50;99.90;;;;;;5071935;28;20037;-76
2022/05/24 03:04:52;;;;;;;51.28;30.65;;;13.50;99.90;;;;;;5071783;28;20048;-76
2022/05/24 03:10:02;;;;;;;56.63;33.10;;;13.50;99.90;;;;;;5071790;28;20511;-76
2022/05/24 03:15:13;;;;;;;55.40;33.45;;;13.50;99.90;;;;;;5071904;28;20078;-76
2022/05/24 03:17:39;;;;;;;47.63;30.48;;;13.60;99.90;;;;;;5071730;28;20036;-76
2022/05/24 03:20:05;;;;;;;49.13;31.40;;;13.50;99.90;;;;;;5071540;28;20331;-76
2022/05/24 03:22:31;;;;;;;54.03;32.05;;;13.60;99.90;;;;;;5071866;28;20338;-76
2022/05/24 03:24:57;;;;;;;53.50;32.80;;;13.60;99.90;;;;;;5071658;28;20051;-76
2022/05/24 03:27:22;;;;;;;54.28;33.03;;;13.60;99.90;;;;;;5053950;28;20055;-76
2022/05/24 03:29:48;;;;;;;53.72;32.08;;;13.60;99.90;;;;;;5071662;28;20044;-77
2022/05/24 03:32:16;;;;;;;37.42;26.42;;;13.60;99.90;;;;;;5071534;28;20060;-77
2022/05/24 03:34:42;;;;;;;37.88;25.35;;;13.60;99.90;;;;;;5071562;28;20132;-76
2022/05/24 03:37:08;;;;;;;32.33;23.35;;;13.60;99.90;;;;;;5063656;28;20045;-77
2022/05/24 03:39:34;;;;;;;32.75;24.23;;;13.60;99.90;;;;;;5054272;28;20372;-77
2022/05/24 03:42:00;;;;;;;33.03;22.50;;;13.60;99.90;;;;;;5054414;28;20472;-76
2022/05/24 03:44:26;;;;;;;33.33;24.35;;;13.60;99.90;;;;;;5054071;28;20044;-75
2022/05/24 03:46:53;;;;;;;30.75;23.17;;;13.60;99.90;;;;;;5054190;28;20071;-76
2022/05/24 03:49:19;;;;;;;28.00;22.48;;;13.60;99.90;;;;;;5071241;28;20036;-75
2022/05/24 03:51:45;;;;;;;28.65;23.20;;;13.60;99.90;;;;;;5071533;28;20040;-76
2022/05/24 03:54:12;;;;;;;30.90;23.60;;;13.60;99.90;;;;;;5053911;28;20066;-76
2022/05/24 03:57:59;;;;;;;26.42;21.23;;;13.60;99.90;;;;;;5054165;28;20044;-76
2022/05/24 03:59:25;;;;;;;28.17;22.20;;;13.60;99.90;;;;;;5071050;28;20052;-77
2022/05/24 04:01:51;;;;;;;34.15;23.35;;;13.50;99.90;;;;;;5071186;28;20519;-77
2022/05/24 04:04:17;;;;;;;29.02;22.75;;;13.50;99.90;;;;;;5071562;28;20048;-76
2022/05/24 04:06:43;;;;;;;37.80;25.77;;;13.60;99.90;;;;;;5071520;28;20056;-75
2022/05/24 04:09:08;;;;;;;43.85;26.92;;;13.60;99.90;;;;;;5071327;28;20076;-77
2022/05/24 04:11:34;;;;;;;39.20;26.73;;;13.60;99.90;;;;;;5054143;28;20512;-76
2022/05/24 04:14:00;;;;;;;35.90;25.55;;;13.60;99.90;;;;;;5053806;28;20045;-75
2022/05/24 04:16:26;;;;;;;34.10;26.42;;;13.60;99.90;;;;;;5056377;28;20523;-76
2022/05/24 04:18:52;;;;;;;40.97;25.30;;;13.60;99.90;;;;;;5057504;28;20051;-78
2022/05/24 04:21:17;;;;;;;34.38;25.98;;;13.60;99.90;;;;;;5075061;28;20075;-75
2022/05/24 04:23:43;;;;;;;32.55;23.92;;;13.60;99.90;;;;;;5074653;28;20071;-75
2022/05/24 04:26:09;;;;;;;30.90;24.20;;;13.60;99.90;;;;;;5074554;28;20074;-76
2022/05/24 04:28:35;;;;;;;37.88;27.50;;;13.60;99.90;;;;;;5057349;28;20473;-77
2022/05/24 04:31:01;;;;;;;31.90;24.25;;;13.60;99.90;;;;;;5057290;28;20041;-77
2022/05/24 04:33:27;;;;;;;31.60;22.15;;;13.60;99.90;;;;;;5074465;28;20048;-77
2022/05/24 04:35:53;;;;;;;26.15;21.67;;;13.60;99.90;;;;;;5074939;28;20158;-76
2022/05/24 04:38:18;;;;;;;31.08;23.40;;;13.60;99.90;;;;;;5074537;28;20044;-77
2022/05/24 04:43:30;;;;;;;23.23;17.80;;;13.60;99.90;;;;;;5064097;28;20472;-76
2022/05/24 04:45:56;;;;;;;27.90;18.63;;;13.60;99.90;;;;;;5037318;28;20049;-76
2022/05/24 04:48:23;;;;;;;23.95;16.27;;;13.70;99.90;;;;;;5037152;28;20044;-76
2022/05/24 04:50:56;;;;;;;23.88;15.10;;;13.70;99.90;;;;;;5037217;28;20072;-76
2022/05/24 04:53:23;;;;;;;34.55;18.70;;;13.70;99.90;;;;;;5054269;28;20183;-76
2022/05/24 04:55:49;;;;;;;37.25;22.42;;;13.70;99.90;;;;;;5036972;28;20082;-77
2022/05/24 04:58:16;;;;;;;39.13;22.85;;;13.70;99.90;;;;;;5033799;28;20044;-77
2022/05/24 05:00:44;;;;;;;33.63;22.67;;;13.70;99.90;;;;;;5036638;28;20037;-76
2022/05/24 05:03:12;;;;;;;37.83;24.42;;;13.60;99.90;;;;;;5036886;28;20123;-76
2022/05/24 05:05:38;;;;;;;38.72;24.58;;;13.60;99.90;;;;;;5054112;28;20059;-78
2022/05/24 05:08:05;;;;;;;32.33;21.95;;;13.60;99.90;;;;;;5054161;28;20547;-76
2022/05/24 05:10:34;;;;;;;37.97;21.90;;;13.50;99.90;;;;;;5053722;28;20146;-75
2022/05/24 05:13:00;;;;;;;34.08;20.48;;;13.50;99.90;;;;;;5036827;28;20092;-77
2022/05/24 05:15:26;;;;;;;35.47;20.33;;;13.50;99.90;;;;;;5036609;28;20516;-76
2022/05/24 05:18:09;;;;;;;31.20;19.70;;;13.50;99.90;;;;;;5053811;28;20040;-77
2022/05/24 05:20:40;;;;;;;31.98;18.27;;;13.40;99.90;;;;;;5053502;28;20470;-75
2022/05/24 05:23:07;;;;;;;29.88;18.30;;;13.40;99.90;;;;;;5033854;28;20045;-76
2022/05/24 05:25:33;;;;;;;27.70;18.00;;;13.40;99.90;;;;;;5019894;28;20052;-76
2022/05/24 05:27:59;;;;;;;25.00;16.23;;;13.40;99.90;;;;;;5034620;28;20041;-75
2022/05/24 05:33:10;;;;;;;23.75;15.50;;;13.60;99.90;;;;;;5053426;28;20189;-77
2022/05/24 05:35:38;;;;;;;21.67;15.23;;;13.50;99.90;;;;;;5053266;28;20045;-75
2022/05/24 05:38:05;;;;;;;27.92;17.58;;;13.60;99.90;;;;;;5053697;28;20120;-76
2022/05/24 05:40:30;;;;;;;23.17;15.73;;;13.50;99.90;;;;;;5035680;28;20056;-77
2022/05/24 05:42:56;;;;;;;23.33;15.68;;;13.50;99.90;;;;;;5053705;28;20033;-75
2022/05/24 05:45:22;;;;;;;23.00;16.98;;;13.40;99.90;;;;;;5019602;28;20052;-76
2022/05/24 05:47:48;;;;;;;25.65;16.60;;;13.40;99.90;;;;;;5036008;28;20071;-76
2022/05/24 05:50:14;;;;;;;23.52;16.42;;;13.40;99.90;;;;;;5035789;28;20382;-77
2022/05/24 05:52:40;;;;;;;27.60;16.90;;;13.50;99.90;;;;;;5035988;28;20107;-79
2022/05/24 05:55:06;;;;;;;24.52;15.88;;;13.40;99.90;;;;;;5053616;28;20041;-80
2022/05/24 05:57:32;;;;;;;27.50;17.35;;;13.50;99.90;;;;;;5033250;28;20041;-79
2022/05/24 05:59:57;;;;;;;26.85;16.73;;;13.50;99.90;;;;;;5035440;28;20127;-80
2022/05/24 06:02:23;;;;;;;23.70;16.05;;;13.50;99.90;;;;;;5036206;28;20055;-77
2022/05/24 06:04:49;;;;;;;25.58;16.67;;;13.50;99.90;;;;;;5052821;28;20358;-76
2022/05/24 06:07:15;;;;;;;23.10;16.42;;;13.60;99.90;;;;;;5035949;28;20391;-78
2022/05/24 06:09:40;;;;;;;26.80;16.33;;;13.60;99.90;;;;;;5055284;28;20033;-77
2022/05/24 06:12:07;;;;;;;27.80;17.75;;;13.60;99.90;;;;;;5055149;28;20045;-77
2022/05/24 06:14:32;;;;;;;24.35;17.15;;;13.70;99.90;;;;;;5052764;28;20037;-79
2022/05/24 06:16:58;;;;;;;29.58;16.13;;;13.80;99.90;;;;;;5052696;28;20037;-78
2022/05/24 06:19:26;;;;;;;25.65;16.33;;;13.80;99.90;;;;;;5018656;28;20124;-78
2022/05/24 06:21:51;;;;;;;21.60;13.57;;;13.90;99.90;;;;;;5035520;28;20136;-77
2022/05/24 06:24:17;;;;;;;17.33;12.52;;;13.90;99.90;;;;;;5035277;28;20120;-76
2022/05/24 06:26:43;;;;;;;18.30;10.80;;;14.00;99.90;;;;;;5042682;28;20052;-75
2022/05/24 06:29:09;;;;;;;23.35;10.00;;;14.00;99.90;;;;;;5038689;28;20338;-76
2022/05/24 06:31:34;;;;;;;13.35;8.52;;;14.00;99.90;;;;;;5051862;28;20075;-78
2022/05/24 06:34:00;;;;;;;15.27;7.72;;;14.00;99.90;;;;;;5071166;28;20055;-76
2022/05/24 06:36:26;;;;;;;12.50;7.38;;;14.00;99.90;;;;;;5036919;28;20465;-75
2022/05/24 06:38:52;;;;;;;10.35;6.55;;;14.10;99.90;;;;;;5054492;28;20051;-75
2022/05/24 06:41:18;;;;;;;10.13;5.70;;;14.10;99.90;;;;;;5054793;28;20393;-75
2022/05/24 06:43:43;;;;;;;13.02;5.65;;;14.20;99.90;;;;;;5071958;28;20048;-76
2022/05/24 06:46:09;;;;;;;8.65;4.88;;;14.20;99.90;;;;;;5054546;28;20048;-75
2022/05/24 06:48:37;;;;;;;9.55;4.88;;;14.20;99.90;;;;;;5075805;28;20036;-76
2022/05/24 06:51:14;;;;;;;9.13;4.35;;;14.20;99.90;;;;;;5071659;28;20131;-75
2022/05/24 06:53:42;;;;;;;8.50;5.20;;;14.30;99.90;;;;;;5072780;28;20109;-77
2022/05/24 06:56:08;;;;;;;7.22;4.13;;;14.30;99.90;;;;;;5090770;28;20366;-76
2022/05/24 06:58:35;;;;;;;12.88;4.47;;;14.30;99.90;;;;;;5092180;28;20032;-79
2022/05/24 07:03:46;;;;;;;7.68;4.85;;;14.40;99.90;;;;;;5092240;28;20526;-77
2022/05/24 07:06:12;;;;;;;8.50;4.60;;;14.30;99.90;;;;;;5074693;28;20051;-77
2022/05/24 07:08:46;;;;;;;11.80;4.38;;;14.40;99.90;;;;;;5092093;28;20044;-77
2022/05/24 07:11:13;;;;;;;12.05;4.53;;;14.30;99.90;;;;;;5092287;28;20044;-78
2022/05/24 07:13:39;;;;;;;9.50;3.70;;;14.40;99.90;;;;;;5091493;28;20036;-77
2022/05/24 07:16:10;;;;;;;12.10;4.88;;;14.40;99.90;;;;;;5092355;28;20070;-77
2022/05/24 07:18:36;;;;;;;;;;;14.40;99.90;;;;;;5092550;28;20044;-77
2022/05/24 07:21:02;;;;;;;7.82;4.03;;;14.40;99.90;;;;;;5074124;28;19923;-77
2022/05/24 07:23:29;;;;;;;12.02;5.05;;;14.40;99.90;;;;;;5092000;28;20110;-77
2022/05/24 07:26:06;;;;;;;12.70;8.07;;;14.50;99.90;;;;;;5074059;28;20507;-78
2022/05/24 07:28:32;;;;;;;15.20;8.23;;;14.60;99.90;;;;;;5074456;28;20044;-78
2022/05/24 07:30:58;;;;;;;16.45;8.15;;;14.60;99.90;;;;;;5074371;28;20036;-77
2022/05/24 07:33:23;;;;;;;16.08;7.40;;;14.60;99.90;;;;;;5074354;28;20062;-77
2022/05/24 07:35:49;;;;;;;12.02;6.53;;;14.70;99.90;;;;;;5074418;28;20098;-77
2022/05/24 07:38:15;;;;;;;10.65;6.40;;;14.60;99.90;;;;;;5074547;28;20083;-77
2022/05/24 07:46:14;;;;;;;16.90;8.18;;;14.50;99.90;;;;;;5071985;28;20055;-77
2022/05/24 07:48:41;;;;;;;12.18;8.48;;;14.50;99.90;;;;;;5054629;28;20040;-76
2022/05/24 07:51:07;;;;;;;15.95;9.40;;;14.50;99.90;;;;;;5074178;28;20036;-76
2022/05/24 07:53:33;;;;;;;17.45;9.88;;;14.50;99.90;;;;;;5058430;28;20052;-78
2022/05/24 07:55:59;;;;;;;15.18;9.10;;;14.40;99.90;;;;;;5058051;28;20140;-76
2022/05/24 07:58:26;;;;;;;14.77;9.55;;;14.40;99.90;;;;;;5059465;28;20353;-75
2022/05/24 08:00:55;;;;;;;20.35;9.10;;;14.30;99.90;;;;;;5054864;28;20130;-77
2022/05/24 08:03:20;;;;;;;15.13;8.60;;;14.20;99.90;;;;;;5074981;28;20036;-77
2022/05/24 08:05:46;;;;;;;16.48;9.15;;;14.20;99.90;;;;;;5052881;28;20667;-76
2022/05/24 08:08:14;;;;;;;14.80;8.40;;;14.00;99.90;;;;;;5073458;28;20438;-78
2022/05/24 08:10:41;;;;;;;15.43;9.77;;;14.00;99.90;;;;;;5057484;28;20115;-76
2022/05/24 08:13:16;;;;;;;18.27;11.95;;;14.00;99.90;;;;;;5075408;28;20131;-77
2022/05/24 08:15:42;;;;;;;16.98;11.77;;;14.00;99.90;;;;;;5057940;28;20101;-77
2022/05/24 08:18:08;;;;;;;19.65;11.15;;;14.00;99.90;;;;;;5075769;28;20413;-77
2022/05/24 08:20:38;;;;;;;19.48;13.38;;;13.90;99.90;;;;;;5075248;28;20051;-76
2022/05/24 08:23:05;;;;;;;19.50;12.73;;;13.80;99.90;;;;;;5057904;28;20711;-76
2022/05/24 08:25:32;;;;;;;16.88;10.40;;;13.90;99.90;;;;;;5075264;28;20044;-77
2022/05/24 08:28:02;;;;;;;17.45;12.63;;;13.90;99.90;;;;;;5057253;28;20057;-78
2022/05/24 08:30:29;;;;;;;15.73;12.70;;;13.90;99.90;;;;;;5075345;28;20060;-78
2022/05/24 08:32:56;;;;;;;11.18;10.00;;;13.90;99.90;;;;;;5075064;28;20277;-77
2022/05/24 08:35:23;;;;;;;6.35;4.35;;;13.90;99.90;;;;;;5057536;28;20354;-78
2022/05/24 08:37:49;;;;;;;5.60;3.83;;;13.80;99.90;;;;;;5074669;28;20422;-77
2022/05/24 08:40:17;;;;;;;4.80;2.90;;;13.60;99.90;;;;;;5057474;28;20168;-77
2022/05/24 08:43:05;;;;;;;6.82;2.35;;;13.50;99.90;;;;;;5054466;28;20044;-76
2022/05/24 08:48:25;;;;;;;3.03;1.65;;;13.30;99.90;;;;;;5057406;28;20401;-74
2022/05/24 08:51:13;;;;;;;6.05;1.40;;;13.30;99.90;;;;;;5075063;28;20083;-76
2022/05/24 08:53:46;;;;;;;4.82;1.10;;;13.20;99.90;;;;;;5057322;28;20446;-75
2022/05/24 08:56:19;;;;;;;2.92;1.20;;;13.20;99.90;;;;;;5074602;28;20040;-77
2022/05/24 08:58:51;;;;;;;3.95;1.13;;;13.20;99.90;;;;;;5057204;28;20386;-75
2022/05/24 09:01:29;;;;;;;4.75;1.67;;;13.20;99.90;;;;;;5056797;28;20044;-75
2022/05/24 09:03:55;;;;;;;3.97;1.55;;;13.20;99.90;;;;;;5074785;28;20048;-75
2022/05/24 09:06:55;;;;;;;5.20;1.67;;;13.20;99.90;;;;;;5075817;28;20098;-80
2022/05/24 09:09:38;;;;;;;2.63;1.55;;;13.20;99.90;;;;;;5074749;28;20045;-74
2022/05/24 09:12:26;;;;;;;4.90;1.98;;;13.30;99.90;;;;;;5074508;28;20453;-74
2022/05/24 09:14:52;;;;;;;4.00;2.10;;;13.40;99.90;;;;;;5073474;28;20040;-77
2022/05/24 09:17:51;;;;;;;4.25;1.52;;;13.60;99.90;;;;;;5073920;28;20051;-75
2022/05/24 09:20:35;;;;;;;3.17;1.45;;;13.90;99.90;;;;;;5054370;28;20130;-75
2022/05/24 09:23:10;;;;;;;4.45;1.70;;;14.00;99.90;;;;;;5071469;28;20048;-76
2022/05/24 09:25:36;;;;;;;6.82;2.70;;;14.00;99.90;;;;;;5053853;28;20040;-76
2022/05/24 09:28:02;;;;;;;4.63;2.75;;;14.00;99.90;;;;;;5073427;28;20354;-75
2022/05/24 09:30:28;;;;;;;7.63;3.95;;;13.90;99.90;;;;;;5056555;28;20476;-75
2022/05/24 09:33:19;;;;;;;10.02;5.38;;;13.90;99.90;;;;;;5056426;28;20044;-76
2022/05/24 09:35:45;;;;;;;10.07;6.75;;;13.90;99.90;;;;;;5073795;28;20046;-77
2022/05/24 09:38:16;;;;;;;7.28;6.15;;;14.00;99.90;;;;;;5073749;28;20119;-75
2022/05/24 09:40:49;;;;;;;10.35;6.65;;;14.10;99.90;;;;;;5073627;28;20051;-77
2022/05/24 09:43:33;;;;;;;8.07;5.95;;;14.10;99.90;;;;;;5056198;28;20049;-77
2022/05/24 09:46:12;;;;;;;10.13;6.53;;;14.00;99.90;;;;;;5073797;28;20307;-77
2022/05/24 09:49:00;;;;;;;7.97;6.22;;;14.00;99.90;;;;;;5073579;28;20349;-77
2022/05/24 09:51:35;;;;;;;6.97;3.85;;;13.90;99.90;;;;;;5073637;28;20076;-79
2022/05/24 09:54:04;;;;;;;7.63;3.75;;;13.80;99.90;;;;;;5056023;28;20037;-75
2022/05/24 09:56:33;;;;;;;7.43;3.75;;;13.80;99.90;;;;;;5056110;28;20426;-77
2022/05/24 09:59:19;;;;;;;10.25;3.38;;;13.90;99.90;;;;;;5055830;28;20106;-78
2022/05/24 10:01:49;;;;;;;4.57;2.75;;;14.00;99.90;;;;;;5073469;28;20078;-76
2022/05/24 10:04:25;;;;;;;7.63;2.45;;;14.30;99.90;;;;;;5073436;28;20048;-77
2022/05/24 10:06:58;;;;;;;5.78;2.63;;;14.60;99.90;;;;;;5073226;28;20044;-77
2022/05/24 10:09:53;;;;;;;3.50;2.50;;;15.20;99.90;;;;;;5055770;28;20431;-76
2022/05/24 10:12:39;;;;;;;4.85;2.25;;;15.90;99.90;;;;;;5072684;28;20048;-78
2022/05/24 10:15:05;;;;;;;6.43;2.60;;;16.10;99.90;;;;;;5055454;28;20350;-77
2022/05/24 10:17:34;;;;;;;3.53;2.03;;;16.00;99.90;;;;;;5072907;28;20040;-76
2022/05/24 10:20:23;;;;;;;6.45;1.95;;;15.70;99.90;;;;;;5072908;28;20041;-76
2022/05/24 10:23:22;;;;;;;4.18;1.92;;;15.50;99.90;;;;;;5072744;28;20045;-77
2022/05/24 10:26:05;;;;;;;2.13;1.02;;;15.30;99.90;;;;;;5070982;28;20048;-77
2022/05/24 10:28:38;;;;;;;2.55;1.42;;;15.10;99.90;;;;;;5036028;28;20041;-77
2022/05/24 10:31:32;;;;;;;2.53;1.50;;;14.90;99.90;;;;;;5035421;28;20048;-76
2022/05/24 10:40:05;;;;;;;6.63;2.38;;;14.80;99.90;;;;;;5072118;28;20524;-76
2022/05/24 10:42:59;;;;;;;3.03;1.52;;;14.60;99.90;;;;;;5055070;28;20058;-77
2022/05/24 10:45:49;;;;;;;3.33;1.98;;;14.40;99.90;;;;;;5072715;28;20032;-77
2022/05/24 10:48:38;;;;;;;4.47;2.53;;;14.20;99.90;;;;;;5054957;28;20379;-76
2022/05/24 10:51:30;;;;;;;5.57;2.50;;;14.10;99.90;;;;;;5072714;28;20052;-75
2022/05/24 10:54:07;;;;;;;5.80;1.80;;;14.00;99.90;;;;;;5072493;28;20048;-77
2022/05/24 10:57:03;;;;;;;2.58;1.33;;;14.00;99.90;;;;;;5069549;28;20339;-77
2022/05/24 10:59:54;;;;;;;2.63;1.23;;;14.10;99.90;;;;;;5065234;28;20064;-76
2022/05/24 11:02:34;;;;;;;2.03;1.10;;;14.30;99.90;;;;;;5072437;28;20044;-77
2022/05/24 11:05:23;;;;;;;2.45;1.10;;;14.40;99.90;;;;;;5054658;28;20041;-76
2022/05/24 11:08:25;;;;;;;2.92;0.70;;;14.50;99.90;;;;;;5072647;28;20052;-79
2022/05/24 11:10:51;;;;;;;1.85;1.00;;;14.60;99.90;;;;;;5055748;28;20040;-83
2022/05/24 11:13:36;;;;;;;3.30;0.85;;;14.70;99.90;;;;;;5038922;28;20048;-78
2022/05/24 11:16:07;;;;;;;1.75;0.77;;;14.80;99.90;;;;;;5072242;28;20056;-76
2022/05/24 11:18:33;;;;;;;3.40;0.90;;;14.90;99.90;;;;;;5072273;28;20377;-77
2022/05/24 11:21:08;;;;;;;2.10;0.98;;;14.90;99.90;;;;;;5054398;28;20066;-77
2022/05/24 11:23:41;;;;;;;2.42;0.90;;;14.90;99.90;;;;;;5054698;28;20592;-77
2022/05/24 11:26:16;;;;;;;1.27;0.68;;;15.00;99.90;;;;;;5058634;28;20036;-77
2022/05/24 11:28:50;;;;;;;1.92;0.77;;;15.20;99.90;;;;;;5058792;28;20056;-76
2022/05/24 11:31:24;;;;;;;3.25;0.93;;;15.30;99.90;;;;;;5076361;28;20102;-77
2022/05/24 11:33:52;;;;;;;5.80;1.10;;;15.50;99.90;;;;;;5076291;28;20080;-77
2022/05/24 11:36:48;;;;;;;3.30;1.10;;;15.50;99.90;;;;;;5076350;28;20136;-75
2022/05/24 11:39:17;;;;;;;4.25;1.38;;;15.50;99.90;;;;;;5059473;28;20052;-78
2022/05/24 11:41:43;;;;;;;3.35;0.90;;;15.40;99.90;;;;;;5058735;28;20420;-79
2022/05/24 11:44:32;;;;;;;3.42;1.80;;;15.20;99.90;;;;;;5076029;28;20411;-77
2022/05/24 11:46:58;;;;;;;2.65;1.02;;;15.10;99.90;;;;;;5072742;28;20037;-77
2022/05/24 11:49:27;;;;;;;4.53;1.10;;;15.20;99.90;;;;;;5075549;28;20424;-76
2022/05/24 11:52:00;;;;;;;6.20;0.95;;;15.60;99.90;;;;;;5075436;28;20069;-77
2022/05/24 11:54:46;;;;;;;2.28;0.47;;;16.00;99.90;;;;;;5058234;28;20047;-77
2022/05/24 11:57:16;;;;;;;1.30;0.50;;;15.90;99.90;;;;;;5075837;28;20043;-77
2022/05/24 11:59:51;;;;;;;;;;;15.50;99.90;;;;;;5075981;28;20412;-76
2022/05/24 12:02:20;;;;;;;1.13;0.57;;;15.00;99.90;;;;;;5075731;28;19923;-75
2022/05/24 12:08:00;;;;;;;1.83;0.60;;;14.30;99.90;;;;;;5075612;28;20295;-77
2022/05/24 12:10:42;;;;;;;4.40;1.48;;;14.30;99.90;;;;;;5054974;28;20083;-76
2022/05/24 12:13:17;;;;;;;2.75;1.13;;;14.40;99.90;;;;;;5069256;28;20095;-77
2022/05/24 12:15:43;;;;;;;3.55;1.20;;;14.80;99.90;;;;;;5055426;28;20414;-76
2022/05/24 12:18:11;;;;;;;2.63;1.17;;;15.10;99.90;;;;;;5055386;28;20052;-78
2022/05/24 12:20:39;;;;;;;3.40;1.30;;;15.40;99.90;;;;;;5037739;28;20115;-75
2022/05/24 12:23:13;;;;;;;4.75;1.30;;;15.60;99.90;;;;;;5055067;28;20370;-77
2022/05/24 12:25:58;;;;;;;4.80;1.80;;;15.60;99.90;;;;;;5037768;28;20044;-76
2022/05/24 12:28:50;;;;;;;4.97;2.10;;;15.80;99.90;;;;;;5055376;28;20435;-76
2022/05/24 12:31:28;;;;;;;4.63;1.60;;;16.10;99.90;;;;;;5022200;28;20084;-75
2022/05/24 12:34:03;;;;;;;4.25;1.50;;;16.40;99.90;;;;;;5054949;28;20048;-74
2022/05/24 12:36:40;;;;;;;4.22;1.95;;;16.50;99.90;;;;;;5036822;28;20059;-76
2022/05/24 12:39:09;;;;;;;4.20;1.40;;;16.50;99.90;;;;;;5054939;28;20074;-76
2022/05/24 12:41:40;;;;;;;3.07;1.70;;;16.70;99.90;;;;;;5054989;28;20044;-77
2022/05/24 12:44:21;;;;;;;3.88;1.63;;;16.70;99.90;;;;;;5073958;28;20381;-77
2022/05/24 12:47:14;;;;;;;2.85;1.20;;;16.80;99.90;;;;;;5054480;28;20346;-75
2022/05/24 12:49:49;;;;;;;5.38;1.80;;;17.00;99.90;;;;;;5074556;28;20044;-75
2022/05/24 12:52:18;;;;;;;2.47;1.20;;;16.90;99.90;;;;;;5057205;28;20044;-77
2022/05/24 12:54:47;;;;;;;4.07;1.42;;;16.70;99.90;;;;;;5074769;28;20063;-77
2022/05/24 12:57:21;;;;;;;5.45;1.50;;;16.60;99.90;;;;;;5079585;28;20050;-76
2022/05/24 12:59:55;;;;;;;3.65;1.67;;;16.90;99.90;;;;;;5094446;28;20047;-76
2022/05/24 13:02:53;;;;;;;2.35;1.60;;;17.00;99.90;;;;;;5094424;28;20135;-75
2022/05/24 13:05:28;;;;;;;5.13;1.90;;;16.90;99.90;;;;;;5090931;28;20512;-78
2022/05/24 13:07:57;;;;;;;4.28;2.70;;;16.70;99.90;;;;;;5094799;28;20040;-76
2022/05/24 13:10:33;;;;;;;4.55;2.00;;;16.70;99.90;;;;;;5076837;28;20044;-75
2022/05/24 13:13:10;;;;;;;4.93;1.88;;;16.60;99.90;;;;;;5094511;28;20043;-76
2022/05/24 13:15:41;;;;;;;5.82;1.92;;;16.90;99.90;;;;;;5094621;28;20043;-77
2022/05/24 13:18:26;;;;;;;5.20;2.40;;;16.90;99.90;;;;;;5094812;28;20078;-77
2022/05/24 13:20:57;;;;;;;4.07;2.35;;;16.90;99.90;;;;;;5094467;28;20040;-78
2022/05/24 13:23:38;;;;;;;8.73;2.97;;;17.00;99.90;;;;;;5094407;28;20040;-77
2022/05/24 13:26:04;;;;;;;8.35;2.38;;;17.00;99.90;;;;;;5091257;28;20040;-85
2022/05/24 13:28:39;;;;;;;4.63;2.53;;;16.70;99.90;;;;;;5061127;28;20048;-79
2022/05/24 13:34:01;;;;;;;6.00;3.33;;;16.20;99.90;;;;;;5094221;28;20145;-77
2022/05/24 13:36:30;;;;;;;3.53;2.78;;;16.00;99.90;;;;;;5076402;28;20468;-77
2022/05/24 13:39:01;;;;;;;5.68;3.53;;;15.90;99.90;;;;;;5076380;28;20044;-77
2022/05/24 13:41:40;;;;;;;4.75;3.55;;;15.90;99.90;;;;;;5093957;28;20043;-77